createdAt,value
2022-11-19T00:00:20.997Z,4.50
2022-11-19T00:05:23.969Z,4.50
2022-11-19T00:10:26.881Z,4.40
2022-11-19T00:15:29.738Z,4.40
2022-11-19T00:20:34.811Z,4.40
2022-11-19T00:25:37.748Z,4.40
2022-11-19T00:30:47.988Z,4.30
2022-11-19T00:35:55.122Z,4.30
2022-11-19T00:40:58.110Z,4.20
2022-11-19T00:46:01.552Z,4.10
2022-11-19T00:51:04.851Z,4.10
2022-11-19T00:56:14.823Z,4.00
2022-11-19T01:01:20.535Z,3.90
2022-11-19T01:06:25.661Z,3.80
2022-11-19T01:11:33.926Z,3.70
2022-11-19T01:16:42.014Z,3.70
2022-11-19T01:21:44.908Z,3.60
2022-11-19T01:26:47.914Z,3.50
2022-11-19T01:31:50.806Z,3.40
2022-11-19T01:36:53.690Z,3.40
2022-11-19T01:41:56.510Z,3.30
2022-11-19T01:46:59.473Z,3.20
2022-11-19T01:52:03.598Z,3.10
2022-11-19T01:57:13.227Z,3.00
2022-11-19T02:02:19.803Z,2.90
2022-11-19T02:07:29.048Z,2.80
2022-11-19T02:12:58.386Z,2.80
2022-11-19T02:18:14.571Z,2.70
2022-11-19T02:23:57.078Z,2.70
2022-11-19T02:29:05.626Z,2.60
2022-11-19T02:34:31.176Z,2.60
2022-11-19T02:39:36.899Z,2.60
2022-11-19T02:45:16.731Z,2.50
2022-11-19T02:50:46.699Z,2.60
2022-11-19T02:56:08.423Z,2.50
2022-11-19T03:01:30.209Z,2.50
2022-11-19T03:06:34.756Z,2.60
2022-11-19T03:11:37.589Z,2.60
2022-11-19T03:16:51.302Z,2.60
2022-11-19T03:22:08.045Z,2.60
2022-11-19T03:27:25.352Z,2.50
2022-11-19T03:32:36.427Z,2.40
2022-11-19T03:37:43.075Z,2.40
2022-11-19T03:42:51.038Z,2.40
2022-11-19T03:47:56.922Z,2.40
2022-11-19T03:53:04.292Z,2.50
2022-11-19T03:58:11.036Z,2.40
2022-11-19T04:03:13.939Z,2.30
2022-11-19T04:08:16.819Z,2.30
2022-11-19T04:13:19.728Z,2.20
2022-11-19T04:18:22.510Z,2.10
2022-11-19T04:23:25.475Z,2.10
2022-11-19T04:28:28.755Z,2.00
2022-11-19T04:33:31.886Z,2.00
2022-11-19T04:38:34.932Z,2.00
2022-11-19T04:43:37.836Z,2.00
2022-11-19T04:48:40.693Z,2.00
2022-11-19T04:53:44.517Z,2.00
2022-11-19T04:58:47.502Z,2.00
2022-11-19T05:03:50.786Z,2.10
2022-11-19T05:08:53.683Z,2.00
2022-11-19T05:13:56.601Z,2.10
2022-11-19T05:18:59.590Z,2.10
2022-11-19T05:24:02.726Z,2.10
2022-11-19T05:29:05.513Z,2.20
2022-11-19T05:34:08.606Z,2.20
2022-11-19T05:39:11.430Z,2.20
2022-11-19T05:44:14.284Z,2.30
2022-11-19T05:49:17.309Z,2.40
2022-11-19T05:54:20.430Z,2.40
2022-11-19T05:59:23.324Z,2.40
2022-11-19T06:04:26.167Z,2.40
2022-11-19T06:09:29.045Z,2.40
2022-11-19T06:14:31.900Z,2.30
2022-11-19T06:19:34.842Z,2.30
2022-11-19T06:24:37.642Z,2.40
2022-11-19T06:29:40.451Z,2.40
2022-11-19T06:34:43.745Z,2.40
2022-11-19T06:39:46.658Z,2.40
2022-11-19T06:44:49.411Z,2.40
2022-11-19T06:49:52.434Z,2.40
2022-11-19T06:54:55.801Z,2.40
2022-11-19T06:59:58.747Z,2.40
2022-11-19T07:05:01.867Z,2.50
2022-11-19T07:10:05.333Z,2.70
2022-11-19T07:15:09.318Z,3.10
2022-11-19T07:20:12.637Z,3.60
2022-11-19T07:25:15.673Z,3.90
2022-11-19T07:30:18.783Z,4.10
2022-11-19T07:35:21.781Z,4.30
2022-11-19T07:40:24.703Z,4.40
2022-11-19T07:45:27.582Z,4.50
2022-11-19T07:50:30.549Z,4.50
2022-11-19T07:55:34.021Z,4.50
2022-11-19T08:00:37.303Z,4.60
2022-11-19T08:05:40.762Z,4.60
2022-11-19T08:10:43.586Z,4.50
2022-11-19T08:15:46.415Z,4.30
2022-11-19T08:20:49.137Z,4.50
2022-11-19T08:25:53.018Z,5.10
2022-11-19T08:30:56.621Z,6.00
2022-11-19T08:35:59.429Z,6.60
2022-11-19T08:41:20.780Z,7.20
2022-11-19T08:46:23.686Z,7.80
2022-11-19T08:51:26.836Z,8.50
2022-11-19T08:56:30.619Z,8.90
2022-11-19T09:01:33.434Z,9.10
2022-11-19T09:06:36.328Z,9.20
2022-11-19T09:11:42.713Z,9.50
2022-11-19T09:16:46.152Z,9.70
2022-11-19T09:21:49.454Z,9.80
2022-11-19T09:26:53.198Z,9.70
2022-11-19T09:31:56.260Z,9.30
2022-11-19T09:36:59.418Z,8.80
2022-11-19T09:42:49.144Z,8.30
2022-11-19T09:48:17.014Z,8.00
2022-11-19T09:53:22.934Z,7.70
2022-11-19T09:58:38.290Z,7.50
2022-11-19T10:03:44.523Z,7.20
2022-11-19T10:09:05.269Z,6.90
2022-11-19T10:14:38.173Z,6.70
2022-11-19T10:19:50.261Z,6.50
2022-11-19T10:25:19.557Z,6.40
2022-11-19T10:30:29.250Z,6.40
2022-11-19T10:36:12.647Z,6.60
2022-11-19T10:41:21.782Z,6.80
2022-11-19T10:46:27.743Z,7.00
2022-11-19T10:51:40.346Z,7.10
2022-11-19T10:56:43.795Z,7.20
2022-11-19T11:01:52.702Z,7.50
2022-11-19T11:07:00.006Z,7.60
2022-11-19T11:12:38.854Z,7.60
2022-11-19T11:17:44.784Z,7.80
2022-11-19T11:23:01.701Z,8.00
2022-11-19T11:28:06.684Z,7.90
2022-11-19T11:33:24.889Z,7.60
2022-11-19T11:38:29.233Z,7.40
2022-11-19T11:43:35.019Z,7.20
2022-11-19T11:48:45.899Z,6.90
2022-11-19T11:54:22.756Z,6.70
2022-11-19T11:59:31.162Z,6.50
2022-11-19T12:04:35.606Z,6.40
2022-11-19T12:09:45.879Z,6.30
2022-11-19T12:15:19.648Z,6.30
2022-11-19T12:21:06.246Z,6.30
2022-11-19T12:26:27.478Z,6.30
2022-11-19T12:31:58.615Z,6.40
2022-11-19T12:37:26.702Z,6.50
2022-11-19T12:43:03.080Z,6.60
2022-11-19T12:48:30.163Z,6.90
2022-11-19T12:53:44.909Z,7.10
2022-11-19T12:59:03.149Z,7.30
2022-11-19T13:04:23.767Z,7.50
2022-11-19T13:09:48.849Z,7.60
2022-11-19T13:15:02.267Z,7.60
2022-11-19T13:20:27.635Z,7.50
2022-11-19T13:25:40.630Z,7.30
2022-11-19T13:30:47.201Z,7.20
2022-11-19T13:36:32.500Z,7.00
2022-11-19T13:42:09.282Z,6.90
2022-11-19T13:47:54.150Z,6.80
2022-11-19T13:53:20.071Z,6.60
2022-11-19T13:58:38.347Z,6.50
2022-11-19T14:04:20.140Z,6.40
2022-11-19T14:09:44.150Z,6.30
2022-11-19T14:15:28.327Z,6.20
2022-11-19T14:21:09.232Z,6.20
2022-11-19T14:26:32.147Z,6.10
2022-11-19T14:32:00.750Z,6.00
2022-11-19T14:37:39.713Z,5.90
2022-11-19T14:43:30.659Z,5.80
2022-11-19T14:48:40.175Z,5.70
2022-11-19T14:54:15.186Z,5.50
2022-11-19T14:59:24.350Z,5.50
2022-11-19T15:04:49.457Z,5.40
2022-11-19T15:10:10.767Z,5.30
2022-11-19T15:15:19.870Z,5.20
2022-11-19T15:21:07.241Z,5.30
2022-11-19T15:26:47.142Z,5.20
2022-11-19T15:32:42.607Z,5.30
2022-11-19T15:38:20.456Z,5.30
2022-11-19T15:43:46.017Z,5.30
2022-11-19T15:49:26.967Z,5.30
2022-11-19T15:54:32.923Z,5.20
2022-11-19T15:59:38.288Z,5.20
2022-11-19T16:04:41.291Z,5.10
2022-11-19T16:09:44.329Z,5.00
2022-11-19T16:15:12.640Z,5.00
2022-11-19T16:20:22.332Z,4.90
2022-11-19T16:25:38.100Z,4.90
2022-11-19T16:30:49.855Z,4.80
2022-11-19T16:36:09.905Z,4.80
2022-11-19T16:41:32.581Z,4.80
2022-11-19T16:46:36.032Z,4.70
2022-11-19T16:51:53.534Z,4.70
2022-11-19T16:56:56.663Z,4.60
2022-11-19T17:02:00.376Z,4.60
2022-11-19T17:07:03.525Z,4.50
2022-11-19T17:12:27.770Z,4.40
2022-11-19T17:17:42.058Z,4.40
2022-11-19T17:22:45.028Z,4.40
2022-11-19T17:27:57.641Z,4.30
2022-11-19T17:33:04.620Z,4.30
2022-11-19T17:38:28.205Z,4.30
2022-11-19T17:43:55.901Z,4.30
2022-11-19T17:48:58.865Z,4.20
2022-11-19T17:54:02.232Z,4.10
2022-11-19T17:59:05.298Z,4.10
2022-11-19T18:04:12.276Z,4.00
2022-11-19T18:09:15.175Z,3.90
2022-11-19T18:14:18.144Z,3.90
2022-11-19T18:19:28.573Z,3.80
2022-11-19T18:24:31.509Z,3.80
2022-11-19T18:29:34.459Z,3.80
2022-11-19T18:34:38.449Z,3.80
2022-11-19T18:39:41.436Z,3.80
2022-11-19T18:44:44.402Z,3.80
2022-11-19T18:49:47.293Z,3.70
2022-11-19T18:54:50.232Z,3.70
2022-11-19T18:59:53.177Z,3.60
2022-11-19T19:04:56.546Z,3.60
2022-11-19T19:09:59.442Z,3.50
2022-11-19T19:15:02.492Z,3.50
2022-11-19T19:20:05.941Z,3.50
2022-11-19T19:25:09.527Z,3.50
2022-11-19T19:30:12.886Z,3.50
2022-11-19T19:35:15.964Z,3.50
2022-11-19T19:40:18.904Z,3.50
2022-11-19T19:45:21.750Z,3.50
2022-11-19T19:50:24.807Z,3.50
2022-11-19T19:55:27.773Z,3.50
2022-11-19T20:00:30.685Z,3.50
2022-11-19T20:05:33.860Z,3.50
2022-11-19T20:10:36.793Z,3.40
2022-11-19T20:15:41.261Z,3.40
2022-11-19T20:20:44.052Z,3.40
2022-11-19T20:25:46.940Z,3.40
2022-11-19T20:30:49.928Z,3.40
2022-11-19T20:35:53.003Z,3.40
2022-11-19T20:41:02.002Z,3.30
2022-11-19T20:46:12.085Z,3.30
2022-11-19T20:51:19.979Z,3.30
2022-11-19T20:56:22.832Z,3.20
2022-11-19T21:01:29.851Z,3.20
2022-11-19T21:06:34.673Z,3.20
2022-11-19T21:11:37.971Z,3.20
2022-11-19T21:16:41.057Z,3.10
2022-11-19T21:21:45.535Z,3.10
2022-11-19T21:26:48.693Z,3.00
2022-11-19T21:31:51.702Z,3.00
2022-11-19T21:36:55.491Z,3.00
2022-11-19T21:42:00.857Z,3.00
2022-11-19T21:47:03.887Z,2.90
2022-11-19T21:52:07.203Z,2.90
2022-11-19T21:57:10.000Z,2.90
2022-11-19T22:02:13.863Z,2.90
2022-11-19T22:07:16.803Z,2.90
2022-11-19T22:12:19.715Z,2.80
2022-11-19T22:17:22.729Z,2.80
2022-11-19T22:22:25.427Z,2.80
2022-11-19T22:27:31.491Z,2.70
2022-11-19T22:32:34.419Z,2.70
2022-11-19T22:37:37.362Z,2.70
2022-11-19T22:42:40.352Z,2.60
2022-11-19T22:47:43.173Z,2.60
2022-11-19T22:52:46.111Z,2.60
2022-11-19T22:57:49.079Z,2.60
2022-11-19T23:02:51.880Z,2.50
2022-11-19T23:07:55.250Z,2.50
2022-11-19T23:13:16.285Z,2.50
2022-11-19T23:18:19.177Z,2.50
2022-11-19T23:23:22.429Z,2.50
2022-11-19T23:28:27.407Z,2.50
2022-11-19T23:33:30.380Z,2.50
2022-11-19T23:38:36.338Z,2.50
2022-11-19T23:43:40.395Z,2.50
2022-11-19T23:48:46.248Z,2.40
2022-11-19T23:53:49.858Z,2.40
2022-11-19T23:58:52.996Z,2.40
